sensor_id;sensor_type;location;lat;lon;timestamp;P1;durP1;ratioP1;P2;durP2;ratioP2
81351;SDS011;70809;52.184;13.422;2023-07-13T00:00:53;6.43;;;2.67;;
81351;SDS011;70809;52.184;13.422;2023-07-13T00:01:54;5.40;;;2.72;;
81351;SDS011;70809;52.184;13.422;2023-07-13T00:02:56;4.85;;;3.10;;
81351;SDS011;70809;52.184;13.422;2023-07-13T00:03:58;4.55;;;2.85;;
81351;SDS011;70809;52.184;13.422;2023-07-13T00:05:00;7.10;;;3.30;;
81351;SDS011;70809;52.184;13.422;2023-07-13T00:06:02;3.90;;;2.85;;
81351;SDS011;70809;52.184;13.422;2023-07-13T00:07:04;5.80;;;3.30;;
81351;SDS011;70809;52.184;13.422;2023-07-13T00:08:09;4.38;;;3.25;;
81351;SDS011;70809;52.184;13.422;2023-07-13T00:09:10;4.95;;;3.13;;
81351;SDS011;70809;52.184;13.422;2023-07-13T00:10:14;5.40;;;3.22;;
81351;SDS011;70809;52.184;13.422;2023-07-13T00:11:16;5.18;;;3.20;;
81351;SDS011;70809;52.184;13.422;2023-07-13T00:12:22;6.13;;;3.05;;
81351;SDS011;70809;52.184;13.422;2023-07-13T00:13:25;4.85;;;3.10;;
81351;SDS011;70809;52.184;13.422;2023-07-13T00:14:27;5.93;;;3.03;;
81351;SDS011;70809;52.184;13.422;2023-07-13T00:15:30;5.78;;;2.83;;
81351;SDS011;70809;52.184;13.422;2023-07-13T00:16:32;4.80;;;2.95;;
81351;SDS011;70809;52.184;13.422;2023-07-13T00:17:35;6.18;;;2.80;;
81351;SDS011;70809;52.184;13.422;2023-07-13T00:18:36;3.75;;;3.33;;
81351;SDS011;70809;52.184;13.422;2023-07-13T00:19:38;7.95;;;3.00;;
81351;SDS011;70809;52.184;13.422;2023-07-13T00:20:40;4.30;;;3.20;;
81351;SDS011;70809;52.184;13.422;2023-07-13T00:21:41;3.83;;;2.40;;
81351;SDS011;70809;52.184;13.422;2023-07-13T00:22:46;5.45;;;2.88;;
81351;SDS011;70809;52.184;13.422;2023-07-13T00:23:48;4.63;;;3.13;;
81351;SDS011;70809;52.184;13.422;2023-07-13T00:24:50;5.00;;;2.90;;
81351;SDS011;70809;52.184;13.422;2023-07-13T00:25:54;4.53;;;2.58;;
81351;SDS011;70809;52.184;13.422;2023-07-13T00:26:55;5.10;;;2.72;;
81351;SDS011;70809;52.184;13.422;2023-07-13T00:27:57;7.60;;;3.55;;
81351;SDS011;70809;52.184;13.422;2023-07-13T00:28:59;4.93;;;3.00;;
81351;SDS011;70809;52.184;13.422;2023-07-13T00:30:05;5.95;;;2.95;;
81351;SDS011;70809;52.184;13.422;2023-07-13T00:31:07;4.10;;;2.85;;
81351;SDS011;70809;52.184;13.422;2023-07-13T00:32:10;6.53;;;3.08;;
81351;SDS011;70809;52.184;13.422;2023-07-13T00:33:12;3.75;;;3.15;;
81351;SDS011;70809;52.184;13.422;2023-07-13T00:34:19;6.20;;;2.90;;
81351;SDS011;70809;52.184;13.422;2023-07-13T00:35:20;6.05;;;3.15;;
81351;SDS011;70809;52.184;13.422;2023-07-13T00:36:22;6.07;;;3.38;;
81351;SDS011;70809;52.184;13.422;2023-07-13T00:37:24;4.70;;;3.03;;
81351;SDS011;70809;52.184;13.422;2023-07-13T00:38:25;5.57;;;3.30;;
81351;SDS011;70809;52.184;13.422;2023-07-13T00:39:27;5.68;;;3.53;;
81351;SDS011;70809;52.184;13.422;2023-07-13T00:40:29;4.88;;;2.92;;
81351;SDS011;70809;52.184;13.422;2023-07-13T00:41:32;7.15;;;3.90;;
81351;SDS011;70809;52.184;13.422;2023-07-13T00:42:33;5.68;;;3.00;;
81351;SDS011;70809;52.184;13.422;2023-07-13T00:43:35;4.90;;;3.20;;
81351;SDS011;70809;52.184;13.422;2023-07-13T00:44:38;5.95;;;3.28;;
81351;SDS011;70809;52.184;13.422;2023-07-13T00:47:15;6.60;;;3.75;;
81351;SDS011;70809;52.184;13.422;2023-07-13T00:48:18;5.82;;;3.47;;
81351;SDS011;70809;52.184;13.422;2023-07-13T00:49:23;7.05;;;3.55;;
81351;SDS011;70809;52.184;13.422;2023-07-13T00:51:30;6.20;;;3.00;;
81351;SDS011;70809;52.184;13.422;2023-07-13T00:52:36;7.63;;;3.92;;
81351;SDS011;70809;52.184;13.422;2023-07-13T00:53:41;5.43;;;3.17;;
81351;SDS011;70809;52.184;13.422;2023-07-13T00:54:44;3.90;;;3.17;;
81351;SDS011;70809;52.184;13.422;2023-07-13T00:55:47;5.07;;;3.67;;
81351;SDS011;70809;52.184;13.422;2023-07-13T00:57:56;7.05;;;3.55;;
81351;SDS011;70809;52.184;13.422;2023-07-13T00:58:59;5.30;;;3.33;;
81351;SDS011;70809;52.184;13.422;2023-07-13T01:01:06;4.53;;;3.72;;
81351;SDS011;70809;52.184;13.422;2023-07-13T01:02:07;4.85;;;3.60;;
81351;SDS011;70809;52.184;13.422;2023-07-13T01:03:09;7.47;;;3.90;;
81351;SDS011;70809;52.184;13.422;2023-07-13T01:04:11;4.50;;;3.83;;
81351;SDS011;70809;52.184;13.422;2023-07-13T01:05:13;6.20;;;4.07;;
81351;SDS011;70809;52.184;13.422;2023-07-13T01:06:17;6.45;;;3.60;;
81351;SDS011;70809;52.184;13.422;2023-07-13T01:07:19;10.75;;;3.92;;
81351;SDS011;70809;52.184;13.422;2023-07-13T01:08:20;5.95;;;4.22;;
81351;SDS011;70809;52.184;13.422;2023-07-13T01:09:23;4.60;;;3.78;;
81351;SDS011;70809;52.184;13.422;2023-07-13T01:10:25;6.45;;;4.15;;
81351;SDS011;70809;52.184;13.422;2023-07-13T01:11:27;5.97;;;3.65;;
81351;SDS011;70809;52.184;13.422;2023-07-13T01:12:31;3.72;;;3.38;;
81351;SDS011;70809;52.184;13.422;2023-07-13T01:13:33;5.05;;;3.55;;
81351;SDS011;70809;52.184;13.422;2023-07-13T01:14:34;6.38;;;3.33;;
81351;SDS011;70809;52.184;13.422;2023-07-13T01:15:37;5.20;;;3.75;;
81351;SDS011;70809;52.184;13.422;2023-07-13T01:16:40;7.53;;;3.25;;
81351;SDS011;70809;52.184;13.422;2023-07-13T01:17:45;4.85;;;3.17;;
81351;SDS011;70809;52.184;13.422;2023-07-13T01:18:46;4.70;;;3.42;;
81351;SDS011;70809;52.184;13.422;2023-07-13T01:19:50;6.28;;;3.25;;
81351;SDS011;70809;52.184;13.422;2023-07-13T01:20:53;5.35;;;3.40;;
81351;SDS011;70809;52.184;13.422;2023-07-13T01:21:56;4.78;;;3.53;;
81351;SDS011;70809;52.184;13.422;2023-07-13T01:22:57;6.50;;;3.28;;
81351;SDS011;70809;52.184;13.422;2023-07-13T01:23:59;7.70;;;3.53;;
81351;SDS011;70809;52.184;13.422;2023-07-13T01:25:01;4.70;;;3.40;;
81351;SDS011;70809;52.184;13.422;2023-07-13T01:26:03;6.20;;;3.15;;
81351;SDS011;70809;52.184;13.422;2023-07-13T01:27:05;7.50;;;3.63;;
81351;SDS011;70809;52.184;13.422;2023-07-13T01:28:08;5.03;;;3.40;;
81351;SDS011;70809;52.184;13.422;2023-07-13T01:29:12;4.18;;;3.13;;
81351;SDS011;70809;52.184;13.422;2023-07-13T01:30:13;5.88;;;3.60;;
81351;SDS011;70809;52.184;13.422;2023-07-13T01:31:15;5.65;;;3.38;;
81351;SDS011;70809;52.184;13.422;2023-07-13T01:32:18;5.10;;;3.28;;
81351;SDS011;70809;52.184;13.422;2023-07-13T01:33:20;6.50;;;3.53;;
81351;SDS011;70809;52.184;13.422;2023-07-13T01:34:25;7.32;;;3.53;;
81351;SDS011;70809;52.184;13.422;2023-07-13T01:35:27;5.57;;;3.65;;
81351;SDS011;70809;52.184;13.422;2023-07-13T01:36:30;6.55;;;3.80;;
81351;SDS011;70809;52.184;13.422;2023-07-13T01:37:32;7.95;;;3.97;;
81351;SDS011;70809;52.184;13.422;2023-07-13T01:38:34;4.88;;;3.70;;
81351;SDS011;70809;52.184;13.422;2023-07-13T01:39:36;3.88;;;3.40;;
81351;SDS011;70809;52.184;13.422;2023-07-13T01:40:38;4.95;;;3.08;;
81351;SDS011;70809;52.184;13.422;2023-07-13T01:41:40;7.00;;;3.42;;
81351;SDS011;70809;52.184;13.422;2023-07-13T01:42:42;3.97;;;3.10;;
81351;SDS011;70809;52.184;13.422;2023-07-13T01:43:43;5.80;;;3.85;;
81351;SDS011;70809;52.184;13.422;2023-07-13T01:44:45;5.72;;;3.35;;
81351;SDS011;70809;52.184;13.422;2023-07-13T01:45:47;6.07;;;3.42;;
81351;SDS011;70809;52.184;13.422;2023-07-13T01:46:49;5.55;;;3.50;;
81351;SDS011;70809;52.184;13.422;2023-07-13T01:47:51;4.95;;;3.30;;
81351;SDS011;70809;52.184;13.422;2023-07-13T01:48:52;6.65;;;3.65;;
81351;SDS011;70809;52.184;13.422;2023-07-13T01:49:54;8.50;;;3.63;;
81351;SDS011;70809;52.184;13.422;2023-07-13T01:50:56;8.85;;;3.80;;
81351;SDS011;70809;52.184;13.422;2023-07-13T01:51:59;4.40;;;3.50;;
81351;SDS011;70809;52.184;13.422;2023-07-13T01:53:00;4.60;;;3.22;;
81351;SDS011;70809;52.184;13.422;2023-07-13T01:54:02;6.07;;;3.50;;
81351;SDS011;70809;52.184;13.422;2023-07-13T01:55:04;6.53;;;4.07;;
81351;SDS011;70809;52.184;13.422;2023-07-13T01:56:07;5.82;;;3.45;;
81351;SDS011;70809;52.184;13.422;2023-07-13T01:57:10;6.30;;;3.70;;
81351;SDS011;70809;52.184;13.422;2023-07-13T01:58:11;7.00;;;3.88;;
81351;SDS011;70809;52.184;13.422;2023-07-13T01:59:13;5.55;;;3.30;;
81351;SDS011;70809;52.184;13.422;2023-07-13T02:00:15;5.45;;;3.60;;
81351;SDS011;70809;52.184;13.422;2023-07-13T02:01:20;4.18;;;3.15;;
81351;SDS011;70809;52.184;13.422;2023-07-13T02:02:22;6.57;;;3.45;;
81351;SDS011;70809;52.184;13.422;2023-07-13T02:03:24;5.00;;;3.60;;
81351;SDS011;70809;52.184;13.422;2023-07-13T02:04:26;9.18;;;3.67;;
81351;SDS011;70809;52.184;13.422;2023-07-13T02:05:27;6.57;;;3.40;;
81351;SDS011;70809;52.184;13.422;2023-07-13T02:06:29;5.82;;;3.45;;
81351;SDS011;70809;52.184;13.422;2023-07-13T02:07:32;5.25;;;3.47;;
81351;SDS011;70809;52.184;13.422;2023-07-13T02:08:34;5.75;;;3.42;;
81351;SDS011;70809;52.184;13.422;2023-07-13T02:09:36;8.02;;;3.60;;
81351;SDS011;70809;52.184;13.422;2023-07-13T02:10:37;4.43;;;3.50;;
81351;SDS011;70809;52.184;13.422;2023-07-13T02:11:39;6.80;;;3.63;;
81351;SDS011;70809;52.184;13.422;2023-07-13T02:12:41;4.75;;;3.50;;
81351;SDS011;70809;52.184;13.422;2023-07-13T02:13:43;5.13;;;3.95;;
81351;SDS011;70809;52.184;13.422;2023-07-13T02:14:45;8.90;;;4.00;;
81351;SDS011;70809;52.184;13.422;2023-07-13T02:15:49;8.07;;;4.43;;
81351;SDS011;70809;52.184;13.422;2023-07-13T02:16:51;6.45;;;4.05;;
81351;SDS011;70809;52.184;13.422;2023-07-13T02:17:53;6.28;;;3.80;;
81351;SDS011;70809;52.184;13.422;2023-07-13T02:18:54;4.93;;;3.95;;
81351;SDS011;70809;52.184;13.422;2023-07-13T02:19:56;9.23;;;4.40;;
81351;SDS011;70809;52.184;13.422;2023-07-13T02:20:58;8.05;;;4.20;;
81351;SDS011;70809;52.184;13.422;2023-07-13T02:22:00;8.07;;;4.20;;
81351;SDS011;70809;52.184;13.422;2023-07-13T02:23:03;4.65;;;3.90;;
81351;SDS011;70809;52.184;13.422;2023-07-13T02:24:07;7.53;;;4.15;;
81351;SDS011;70809;52.184;13.422;2023-07-13T02:25:08;6.32;;;3.75;;
81351;SDS011;70809;52.184;13.422;2023-07-13T02:26:10;5.22;;;3.75;;
81351;SDS011;70809;52.184;13.422;2023-07-13T02:27:12;6.32;;;4.13;;
81351;SDS011;70809;52.184;13.422;2023-07-13T02:28:14;4.40;;;3.58;;
81351;SDS011;70809;52.184;13.422;2023-07-13T02:29:16;6.15;;;3.92;;
81351;SDS011;70809;52.184;13.422;2023-07-13T02:30:19;6.70;;;4.22;;
81351;SDS011;70809;52.184;13.422;2023-07-13T02:31:21;5.53;;;3.97;;
81351;SDS011;70809;52.184;13.422;2023-07-13T02:32:22;7.15;;;3.75;;
81351;SDS011;70809;52.184;13.422;2023-07-13T02:33:25;5.43;;;3.90;;
81351;SDS011;70809;52.184;13.422;2023-07-13T02:34:27;6.60;;;4.20;;
81351;SDS011;70809;52.184;13.422;2023-07-13T02:35:30;5.97;;;4.15;;
81351;SDS011;70809;52.184;13.422;2023-07-13T02:36:32;4.93;;;3.70;;
81351;SDS011;70809;52.184;13.422;2023-07-13T02:37:34;5.55;;;4.13;;
81351;SDS011;70809;52.184;13.422;2023-07-13T02:38:37;5.25;;;4.00;;
81351;SDS011;70809;52.184;13.422;2023-07-13T02:39:39;5.05;;;4.30;;
81351;SDS011;70809;52.184;13.422;2023-07-13T02:40:41;6.43;;;4.20;;
81351;SDS011;70809;52.184;13.422;2023-07-13T02:41:42;6.28;;;4.25;;
81351;SDS011;70809;52.184;13.422;2023-07-13T02:42:46;6.22;;;4.50;;
81351;SDS011;70809;52.184;13.422;2023-07-13T02:43:47;7.05;;;4.80;;
81351;SDS011;70809;52.184;13.422;2023-07-13T02:44:49;9.20;;;5.05;;
81351;SDS011;70809;52.184;13.422;2023-07-13T02:45:50;4.90;;;4.40;;
81351;SDS011;70809;52.184;13.422;2023-07-13T02:46:52;10.05;;;4.40;;
81351;SDS011;70809;52.184;13.422;2023-07-13T02:47:54;5.57;;;4.28;;
81351;SDS011;70809;52.184;13.422;2023-07-13T02:48:56;5.18;;;4.68;;
81351;SDS011;70809;52.184;13.422;2023-07-13T02:49:57;6.47;;;4.25;;
81351;SDS011;70809;52.184;13.422;2023-07-13T02:50:59;6.25;;;4.18;;
81351;SDS011;70809;52.184;13.422;2023-07-13T02:52:01;7.10;;;4.32;;
81351;SDS011;70809;52.184;13.422;2023-07-13T02:53:03;8.13;;;4.53;;
81351;SDS011;70809;52.184;13.422;2023-07-13T02:54:06;7.57;;;4.85;;
81351;SDS011;70809;52.184;13.422;2023-07-13T02:55:08;5.85;;;4.07;;
81351;SDS011;70809;52.184;13.422;2023-07-13T02:56:10;7.70;;;4.00;;
81351;SDS011;70809;52.184;13.422;2023-07-13T02:57:15;6.50;;;4.25;;
81351;SDS011;70809;52.184;13.422;2023-07-13T02:58:16;7.35;;;4.25;;
81351;SDS011;70809;52.184;13.422;2023-07-13T02:59:18;6.35;;;3.97;;
81351;SDS011;70809;52.184;13.422;2023-07-13T03:00:20;6.43;;;4.50;;
81351;SDS011;70809;52.184;13.422;2023-07-13T03:01:22;6.53;;;4.40;;
81351;SDS011;70809;52.184;13.422;2023-07-13T03:02:24;6.28;;;4.20;;
81351;SDS011;70809;52.184;13.422;2023-07-13T03:03:26;5.93;;;4.25;;
81351;SDS011;70809;52.184;13.422;2023-07-13T03:04:28;7.28;;;4.50;;
81351;SDS011;70809;52.184;13.422;2023-07-13T03:05:30;8.77;;;4.03;;
81351;SDS011;70809;52.184;13.422;2023-07-13T03:06:32;6.07;;;4.20;;
81351;SDS011;70809;52.184;13.422;2023-07-13T03:07:34;7.72;;;4.60;;
81351;SDS011;70809;52.184;13.422;2023-07-13T03:08:38;8.88;;;4.38;;
81351;SDS011;70809;52.184;13.422;2023-07-13T03:09:41;5.10;;;4.60;;
81351;SDS011;70809;52.184;13.422;2023-07-13T03:10:43;5.88;;;4.07;;
81351;SDS011;70809;52.184;13.422;2023-07-13T03:11:45;6.63;;;4.53;;
81351;SDS011;70809;52.184;13.422;2023-07-13T03:12:54;6.35;;;4.30;;
81351;SDS011;70809;52.184;13.422;2023-07-13T03:14:00;6.47;;;4.80;;
81351;SDS011;70809;52.184;13.422;2023-07-13T03:15:05;7.90;;;4.75;;
81351;SDS011;70809;52.184;13.422;2023-07-13T03:16:10;6.97;;;5.20;;
81351;SDS011;70809;52.184;13.422;2023-07-13T03:17:12;8.48;;;4.93;;
81351;SDS011;70809;52.184;13.422;2023-07-13T03:18:15;7.03;;;4.35;;
81351;SDS011;70809;52.184;13.422;2023-07-13T03:19:17;7.82;;;4.45;;
81351;SDS011;70809;52.184;13.422;2023-07-13T03:20:23;10.35;;;4.60;;
81351;SDS011;70809;52.184;13.422;2023-07-13T03:21:25;9.23;;;5.68;;
81351;SDS011;70809;52.184;13.422;2023-07-13T03:22:26;7.75;;;4.80;;
81351;SDS011;70809;52.184;13.422;2023-07-13T03:23:28;7.82;;;4.88;;
81351;SDS011;70809;52.184;13.422;2023-07-13T03:24:30;8.60;;;4.82;;
81351;SDS011;70809;52.184;13.422;2023-07-13T03:25:34;6.70;;;5.13;;
81351;SDS011;70809;52.184;13.422;2023-07-13T03:26:37;5.95;;;4.65;;
81351;SDS011;70809;52.184;13.422;2023-07-13T03:27:39;7.15;;;5.07;;
81351;SDS011;70809;52.184;13.422;2023-07-13T03:28:43;8.43;;;4.78;;
81351;SDS011;70809;52.184;13.422;2023-07-13T03:29:49;5.90;;;4.85;;
81351;SDS011;70809;52.184;13.422;2023-07-13T03:30:58;6.10;;;4.90;;
81351;SDS011;70809;52.184;13.422;2023-07-13T03:32:01;9.25;;;4.85;;
81351;SDS011;70809;52.184;13.422;2023-07-13T03:33:03;8.57;;;4.43;;
81351;SDS011;70809;52.184;13.422;2023-07-13T03:34:08;6.13;;;4.30;;
81351;SDS011;70809;52.184;13.422;2023-07-13T03:35:11;8.52;;;4.95;;
81351;SDS011;70809;52.184;13.422;2023-07-13T03:36:14;8.30;;;4.75;;
81351;SDS011;70809;52.184;13.422;2023-07-13T03:37:18;8.32;;;5.03;;
81351;SDS011;70809;52.184;13.422;2023-07-13T03:38:20;7.55;;;4.53;;
81351;SDS011;70809;52.184;13.422;2023-07-13T03:39:22;8.98;;;4.57;;
81351;SDS011;70809;52.184;13.422;2023-07-13T03:40:27;8.88;;;4.53;;
81351;SDS011;70809;52.184;13.422;2023-07-13T03:41:30;7.20;;;4.07;;
81351;SDS011;70809;52.184;13.422;2023-07-13T03:42:32;6.22;;;4.30;;
81351;SDS011;70809;52.184;13.422;2023-07-13T03:43:34;6.55;;;4.45;;
81351;SDS011;70809;52.184;13.422;2023-07-13T03:44:35;6.68;;;4.40;;
81351;SDS011;70809;52.184;13.422;2023-07-13T03:45:38;7.85;;;4.50;;
81351;SDS011;70809;52.184;13.422;2023-07-13T03:46:40;6.40;;;4.53;;
81351;SDS011;70809;52.184;13.422;2023-07-13T03:47:42;6.32;;;4.68;;
81351;SDS011;70809;52.184;13.422;2023-07-13T03:48:44;7.20;;;4.70;;
81351;SDS011;70809;52.184;13.422;2023-07-13T03:50:49;7.43;;;4.63;;
81351;SDS011;70809;52.184;13.422;2023-07-13T03:51:51;7.82;;;4.38;;
81351;SDS011;70809;52.184;13.422;2023-07-13T03:52:55;13.00;;;5.05;;
81351;SDS011;70809;52.184;13.422;2023-07-13T03:53:56;6.97;;;4.40;;
81351;SDS011;70809;52.184;13.422;2023-07-13T03:54:59;6.25;;;4.55;;
81351;SDS011;70809;52.184;13.422;2023-07-13T03:56:00;7.60;;;4.53;;
81351;SDS011;70809;52.184;13.422;2023-07-13T03:57:04;7.30;;;5.15;;
81351;SDS011;70809;52.184;13.422;2023-07-13T03:58:25;6.15;;;4.15;;
81351;SDS011;70809;52.184;13.422;2023-07-13T03:59:32;8.00;;;4.70;;
81351;SDS011;70809;52.184;13.422;2023-07-13T04:00:34;7.00;;;4.22;;
81351;SDS011;70809;52.184;13.422;2023-07-13T04:01:35;5.72;;;4.82;;
81351;SDS011;70809;52.184;13.422;2023-07-13T04:02:37;7.38;;;4.75;;
81351;SDS011;70809;52.184;13.422;2023-07-13T04:03:39;7.38;;;4.63;;
81351;SDS011;70809;52.184;13.422;2023-07-13T04:04:40;5.90;;;4.65;;
81351;SDS011;70809;52.184;13.422;2023-07-13T04:05:42;8.30;;;4.93;;
81351;SDS011;70809;52.184;13.422;2023-07-13T04:06:46;5.85;;;4.57;;
81351;SDS011;70809;52.184;13.422;2023-07-13T04:07:48;7.40;;;4.20;;
81351;SDS011;70809;52.184;13.422;2023-07-13T04:08:50;6.88;;;4.55;;
81351;SDS011;70809;52.184;13.422;2023-07-13T04:10:54;6.43;;;4.32;;
81351;SDS011;70809;52.184;13.422;2023-07-13T04:11:57;5.53;;;4.03;;
81351;SDS011;70809;52.184;13.422;2023-07-13T04:13:02;5.40;;;4.38;;
81351;SDS011;70809;52.184;13.422;2023-07-13T04:14:04;7.25;;;4.43;;
81351;SDS011;70809;52.184;13.422;2023-07-13T04:15:08;5.93;;;4.35;;
81351;SDS011;70809;52.184;13.422;2023-07-13T04:16:10;7.63;;;4.40;;
81351;SDS011;70809;52.184;13.422;2023-07-13T04:17:12;5.53;;;4.25;;
81351;SDS011;70809;52.184;13.422;2023-07-13T04:18:13;6.07;;;4.10;;
81351;SDS011;70809;52.184;13.422;2023-07-13T04:19:15;5.00;;;3.90;;
81351;SDS011;70809;52.184;13.422;2023-07-13T04:20:17;7.53;;;4.38;;
81351;SDS011;70809;52.184;13.422;2023-07-13T04:21:18;10.32;;;4.90;;
81351;SDS011;70809;52.184;13.422;2023-07-13T04:22:20;9.63;;;4.80;;
81351;SDS011;70809;52.184;13.422;2023-07-13T04:23:22;9.20;;;5.03;;
81351;SDS011;70809;52.184;13.422;2023-07-13T04:24:23;6.15;;;4.57;;
81351;SDS011;70809;52.184;13.422;2023-07-13T04:25:25;6.70;;;5.32;;
81351;SDS011;70809;52.184;13.422;2023-07-13T04:26:27;8.50;;;5.00;;
81351;SDS011;70809;52.184;13.422;2023-07-13T04:27:28;6.53;;;4.93;;
81351;SDS011;70809;52.184;13.422;2023-07-13T04:28:31;5.88;;;4.95;;
81351;SDS011;70809;52.184;13.422;2023-07-13T04:29:33;7.05;;;4.72;;
81351;SDS011;70809;52.184;13.422;2023-07-13T04:30:35;7.40;;;4.95;;
81351;SDS011;70809;52.184;13.422;2023-07-13T04:31:37;9.43;;;5.00;;
81351;SDS011;70809;52.184;13.422;2023-07-13T04:32:39;7.57;;;4.53;;
81351;SDS011;70809;52.184;13.422;2023-07-13T04:33:40;6.53;;;4.88;;
81351;SDS011;70809;52.184;13.422;2023-07-13T04:34:42;6.63;;;4.13;;
81351;SDS011;70809;52.184;13.422;2023-07-13T04:35:44;8.55;;;4.68;;
81351;SDS011;70809;52.184;13.422;2023-07-13T04:36:46;6.60;;;5.22;;
81351;SDS011;70809;52.184;13.422;2023-07-13T04:37:47;9.75;;;4.80;;
81351;SDS011;70809;52.184;13.422;2023-07-13T04:38:50;6.28;;;5.28;;
81351;SDS011;70809;52.184;13.422;2023-07-13T04:39:52;5.70;;;4.20;;
81351;SDS011;70809;52.184;13.422;2023-07-13T04:40:54;5.95;;;4.47;;
81351;SDS011;70809;52.184;13.422;2023-07-13T04:41:57;7.07;;;4.90;;
81351;SDS011;70809;52.184;13.422;2023-07-13T04:42:59;5.00;;;4.20;;
81351;SDS011;70809;52.184;13.422;2023-07-13T04:44:02;6.82;;;5.15;;
81351;SDS011;70809;52.184;13.422;2023-07-13T04:45:04;6.65;;;4.55;;
81351;SDS011;70809;52.184;13.422;2023-07-13T04:46:07;5.45;;;4.45;;
81351;SDS011;70809;52.184;13.422;2023-07-13T04:47:12;8.05;;;5.32;;
81351;SDS011;70809;52.184;13.422;2023-07-13T04:48:13;9.68;;;5.50;;
81351;SDS011;70809;52.184;13.422;2023-07-13T04:49:15;5.63;;;4.93;;
81351;SDS011;70809;52.184;13.422;2023-07-13T04:50:17;5.50;;;5.00;;
81351;SDS011;70809;52.184;13.422;2023-07-13T04:51:18;7.07;;;5.20;;
81351;SDS011;70809;52.184;13.422;2023-07-13T04:52:20;6.72;;;4.40;;
81351;SDS011;70809;52.184;13.422;2023-07-13T04:53:22;5.40;;;4.38;;
81351;SDS011;70809;52.184;13.422;2023-07-13T04:54:24;5.88;;;4.57;;
81351;SDS011;70809;52.184;13.422;2023-07-13T04:55:26;7.57;;;4.40;;
81351;SDS011;70809;52.184;13.422;2023-07-13T04:56:27;8.25;;;4.20;;
81351;SDS011;70809;52.184;13.422;2023-07-13T04:57:29;5.57;;;4.20;;
81351;SDS011;70809;52.184;13.422;2023-07-13T04:58:31;6.32;;;4.45;;
81351;SDS011;70809;52.184;13.422;2023-07-13T04:59:34;8.18;;;4.50;;
81351;SDS011;70809;52.184;13.422;2023-07-13T05:00:36;10.07;;;4.80;;
81351;SDS011;70809;52.184;13.422;2023-07-13T05:01:38;7.22;;;4.70;;
81351;SDS011;70809;52.184;13.422;2023-07-13T05:02:39;7.18;;;4.28;;
81351;SDS011;70809;52.184;13.422;2023-07-13T05:03:41;6.90;;;4.60;;
81351;SDS011;70809;52.184;13.422;2023-07-13T05:04:45;6.88;;;4.25;;
81351;SDS011;70809;52.184;13.422;2023-07-13T05:05:54;5.55;;;4.53;;
81351;SDS011;70809;52.184;13.422;2023-07-13T05:06:56;6.47;;;4.72;;
81351;SDS011;70809;52.184;13.422;2023-07-13T05:07:58;6.72;;;4.60;;
81351;SDS011;70809;52.184;13.422;2023-07-13T05:09:00;7.03;;;4.68;;
81351;SDS011;70809;52.184;13.422;2023-07-13T05:10:01;7.97;;;4.20;;
81351;SDS011;70809;52.184;13.422;2023-07-13T05:11:04;5.72;;;4.20;;
81351;SDS011;70809;52.184;13.422;2023-07-13T05:12:06;5.75;;;4.03;;
81351;SDS011;70809;52.184;13.422;2023-07-13T05:13:09;6.65;;;4.15;;
81351;SDS011;70809;52.184;13.422;2023-07-13T05:14:11;7.28;;;3.83;;
81351;SDS011;70809;52.184;13.422;2023-07-13T05:15:14;4.90;;;4.30;;
81351;SDS011;70809;52.184;13.422;2023-07-13T05:16:16;5.70;;;3.80;;
81351;SDS011;70809;52.184;13.422;2023-07-13T05:17:18;4.78;;;3.65;;
81351;SDS011;70809;52.184;13.422;2023-07-13T05:18:19;7.10;;;4.40;;
81351;SDS011;70809;52.184;13.422;2023-07-13T05:19:21;8.23;;;4.07;;
81351;SDS011;70809;52.184;13.422;2023-07-13T05:20:23;5.45;;;4.10;;
81351;SDS011;70809;52.184;13.422;2023-07-13T05:21:25;5.07;;;3.63;;
81351;SDS011;70809;52.184;13.422;2023-07-13T05:22:26;7.78;;;4.00;;
81351;SDS011;70809;52.184;13.422;2023-07-13T05:23:28;5.47;;;4.05;;
81351;SDS011;70809;52.184;13.422;2023-07-13T05:24:31;8.95;;;3.72;;
81351;SDS011;70809;52.184;13.422;2023-07-13T05:25:32;4.40;;;3.85;;
81351;SDS011;70809;52.184;13.422;2023-07-13T05:26:34;9.13;;;4.68;;
81351;SDS011;70809;52.184;13.422;2023-07-13T05:27:36;7.68;;;4.20;;
81351;SDS011;70809;52.184;13.422;2023-07-13T05:28:38;5.28;;;3.63;;
81351;SDS011;70809;52.184;13.422;2023-07-13T05:29:40;6.88;;;4.28;;
81351;SDS011;70809;52.184;13.422;2023-07-13T05:30:46;6.30;;;4.20;;
81351;SDS011;70809;52.184;13.422;2023-07-13T05:31:47;6.80;;;4.20;;
81351;SDS011;70809;52.184;13.422;2023-07-13T05:32:49;5.22;;;4.22;;
81351;SDS011;70809;52.184;13.422;2023-07-13T05:33:51;6.40;;;4.57;;
81351;SDS011;70809;52.184;13.422;2023-07-13T05:34:53;7.07;;;4.40;;
81351;SDS011;70809;52.184;13.422;2023-07-13T05:35:54;7.40;;;4.55;;
81351;SDS011;70809;52.184;13.422;2023-07-13T05:36:56;5.55;;;4.18;;
81351;SDS011;70809;52.184;13.422;2023-07-13T05:37:58;6.93;;;3.92;;
81351;SDS011;70809;52.184;13.422;2023-07-13T05:39:00;4.82;;;3.78;;
81351;SDS011;70809;52.184;13.422;2023-07-13T05:40:01;7.18;;;3.63;;
81351;SDS011;70809;52.184;13.422;2023-07-13T05:41:03;7.70;;;4.22;;
81351;SDS011;70809;52.184;13.422;2023-07-13T05:42:06;4.78;;;3.92;;
81351;SDS011;70809;52.184;13.422;2023-07-13T05:43:08;6.40;;;3.85;;
81351;SDS011;70809;52.184;13.422;2023-07-13T05:44:10;4.57;;;3.88;;
81351;SDS011;70809;52.184;13.422;2023-07-13T05:45:12;6.53;;;4.03;;
81351;SDS011;70809;52.184;13.422;2023-07-13T05:46:15;4.43;;;3.63;;
81351;SDS011;70809;52.184;13.422;2023-07-13T05:47:16;4.55;;;3.65;;
81351;SDS011;70809;52.184;13.422;2023-07-13T05:48:18;6.20;;;4.20;;
81351;SDS011;70809;52.184;13.422;2023-07-13T05:49:20;5.60;;;4.00;;
81351;SDS011;70809;52.184;13.422;2023-07-13T05:50:22;4.43;;;3.67;;
81351;SDS011;70809;52.184;13.422;2023-07-13T05:51:23;4.85;;;3.35;;
81351;SDS011;70809;52.184;13.422;2023-07-13T05:52:25;6.20;;;3.60;;
81351;SDS011;70809;52.184;13.422;2023-07-13T05:53:26;4.95;;;3.65;;
81351;SDS011;70809;52.184;13.422;2023-07-13T05:54:28;4.90;;;3.53;;
81351;SDS011;70809;52.184;13.422;2023-07-13T05:55:30;5.85;;;3.85;;
81351;SDS011;70809;52.184;13.422;2023-07-13T05:56:31;6.55;;;3.30;;
81351;SDS011;70809;52.184;13.422;2023-07-13T05:57:33;5.05;;;3.50;;
81351;SDS011;70809;52.184;13.422;2023-07-13T05:58:35;6.28;;;3.75;;
81351;SDS011;70809;52.184;13.422;2023-07-13T05:59:36;5.68;;;3.50;;
81351;SDS011;70809;52.184;13.422;2023-07-13T06:00:38;5.95;;;3.45;;
81351;SDS011;70809;52.184;13.422;2023-07-13T06:01:42;7.15;;;3.42;;
81351;SDS011;70809;52.184;13.422;2023-07-13T06:02:43;5.50;;;3.05;;
81351;SDS011;70809;52.184;13.422;2023-07-13T06:03:45;4.80;;;3.42;;
81351;SDS011;70809;52.184;13.422;2023-07-13T06:04:47;4.53;;;3.20;;
81351;SDS011;70809;52.184;13.422;2023-07-13T06:05:51;5.60;;;3.05;;
81351;SDS011;70809;52.184;13.422;2023-07-13T06:06:53;6.43;;;3.38;;
81351;SDS011;70809;52.184;13.422;2023-07-13T06:07:55;4.90;;;3.28;;
81351;SDS011;70809;52.184;13.422;2023-07-13T06:08:56;7.22;;;3.20;;
81351;SDS011;70809;52.184;13.422;2023-07-13T06:09:58;4.88;;;3.00;;
81351;SDS011;70809;52.184;13.422;2023-07-13T06:11:03;4.43;;;3.15;;
81351;SDS011;70809;52.184;13.422;2023-07-13T06:12:06;5.18;;;3.22;;
81351;SDS011;70809;52.184;13.422;2023-07-13T06:13:08;6.90;;;3.13;;
81351;SDS011;70809;52.184;13.422;2023-07-13T06:14:10;5.15;;;2.78;;
81351;SDS011;70809;52.184;13.422;2023-07-13T06:15:12;6.78;;;2.88;;
81351;SDS011;70809;52.184;13.422;2023-07-13T06:16:18;6.47;;;2.70;;
81351;SDS011;70809;52.184;13.422;2023-07-13T06:17:21;4.97;;;3.30;;